createdAt,value
2023-09-13T00:08:47.421Z,19.10
2023-09-13T00:18:50.203Z,19.05
2023-09-13T00:28:52.335Z,18.93
2023-09-13T00:38:54.210Z,18.80
2023-09-13T00:48:56.809Z,18.66
2023-09-13T00:58:58.766Z,18.56
2023-09-13T01:09:05.108Z,18.60
2023-09-13T01:19:51.541Z,18.30
2023-09-13T01:29:54.452Z,18.14
2023-09-13T01:39:59.871Z,18.28
2023-09-13T01:50:04.137Z,18.12
2023-09-13T02:00:06.844Z,18.14
2023-09-13T02:10:09.945Z,18.06
2023-09-13T02:20:13.512Z,18.01
2023-09-13T02:30:15.303Z,17.83
2023-09-13T02:40:18.220Z,17.85
2023-09-13T02:50:20.036Z,17.74
2023-09-13T03:00:25.002Z,17.66
2023-09-13T03:10:30.191Z,17.54
2023-09-13T03:20:31.938Z,17.50
2023-09-13T03:30:35.788Z,17.51
2023-09-13T03:40:37.504Z,17.30
2023-09-13T03:50:39.236Z,17.30
2023-09-13T04:00:41.020Z,17.09
2023-09-13T04:10:42.801Z,17.19
2023-09-13T04:20:45.707Z,17.15
2023-09-13T04:30:49.647Z,17.17
2023-09-13T04:40:51.356Z,17.31
2023-09-13T04:50:53.173Z,17.55
2023-09-13T05:00:54.973Z,17.67
2023-09-13T05:10:56.757Z,17.93
2023-09-13T05:20:59.872Z,18.25
2023-09-13T05:31:02.146Z,18.42
2023-09-13T05:41:11.949Z,18.82
2023-09-13T05:51:13.753Z,19.22
2023-09-13T06:01:15.489Z,19.64
2023-09-13T06:11:20.644Z,19.97
2023-09-13T06:21:22.707Z,20.53
2023-09-13T06:31:33.140Z,21.09
2023-09-13T06:41:36.761Z,21.60
2023-09-13T07:11:48.345Z,23.17
2023-09-13T07:21:52.304Z,23.91
2023-09-13T07:31:54.150Z,24.25
2023-09-13T07:41:55.943Z,24.74
2023-09-13T07:51:57.680Z,25.40
2023-09-13T08:02:01.504Z,25.97
2023-09-13T08:12:04.759Z,26.41
2023-09-13T08:22:06.749Z,26.82
2023-09-13T08:32:08.794Z,27.34
2023-09-13T08:42:16.923Z,28.17
2023-09-13T08:52:19.335Z,30.24
2023-09-13T09:02:26.325Z,34.31
2023-09-13T09:12:28.940Z,35.46
2023-09-13T09:22:31.655Z,37.20
2023-09-13T09:32:39.577Z,38.48
2023-09-13T09:42:41.476Z,36.96
2023-09-13T09:52:44.529Z,38.50
2023-09-13T10:02:47.274Z,40.09
2023-09-13T10:12:52.238Z,41.24
2023-09-13T10:22:59.313Z,41.40
2023-09-13T10:33:04.950Z,42.18
2023-09-13T10:43:09.647Z,40.25
2023-09-13T10:53:15.299Z,37.93
2023-09-13T11:03:19.817Z,37.93
2023-09-13T11:13:32.761Z,40.79
2023-09-13T11:23:59.962Z,42.30
2023-09-13T11:34:06.072Z,44.08
2023-09-13T11:44:24.609Z,43.96
2023-09-13T11:54:30.388Z,43.66
2023-09-13T12:04:51.963Z,41.64
2023-09-13T12:15:01.815Z,43.30
2023-09-13T12:25:06.174Z,45.91
2023-09-13T12:35:08.343Z,44.58
2023-09-13T12:45:10.924Z,42.27
2023-09-13T12:55:12.786Z,42.59
2023-09-13T13:05:15.313Z,41.83
2023-09-13T13:15:17.431Z,43.75
2023-09-13T13:25:23.386Z,42.75
2023-09-13T13:35:25.592Z,43.46
2023-09-13T13:45:27.778Z,43.31
2023-09-13T13:55:31.097Z,42.63
2023-09-13T14:05:33.341Z,44.42
2023-09-13T14:15:38.745Z,42.82
2023-09-13T14:25:44.648Z,43.05
2023-09-13T14:35:47.777Z,39.03
2023-09-13T14:45:50.324Z,37.70
2023-09-13T14:55:58.867Z,34.79
2023-09-13T15:06:01.080Z,33.57
2023-09-13T15:16:05.126Z,33.18
2023-09-13T15:26:07.036Z,32.89
2023-09-13T15:36:08.786Z,32.21
2023-09-13T15:46:16.848Z,31.90
2023-09-13T15:56:19.496Z,31.37
2023-09-13T16:06:21.349Z,31.05
2023-09-13T16:16:28.531Z,30.46
2023-09-13T16:26:33.929Z,30.12
2023-09-13T16:36:36.349Z,29.70
2023-09-13T16:46:38.991Z,29.21
2023-09-13T16:56:41.316Z,28.84
2023-09-13T17:06:43.318Z,28.72
2023-09-13T17:16:48.324Z,28.44
2023-09-13T17:27:00.015Z,28.27
2023-09-13T17:37:10.171Z,27.87
2023-09-13T17:47:14.784Z,27.62
2023-09-13T17:57:18.232Z,27.30
2023-09-13T18:07:24.639Z,26.83
2023-09-13T18:17:35.093Z,26.69
2023-09-13T18:27:46.318Z,26.57
2023-09-13T18:37:50.504Z,26.43
2023-09-13T18:47:53.295Z,26.07
2023-09-13T18:57:56.286Z,25.89
2023-09-13T19:08:02.181Z,25.58
2023-09-13T19:18:05.286Z,25.41
2023-09-13T19:28:07.673Z,25.40
2023-09-13T19:38:23.735Z,25.36
2023-09-13T19:48:31.930Z,25.30
2023-09-13T19:58:37.933Z,25.32
2023-09-13T20:08:40.153Z,25.22
2023-09-13T20:18:43.865Z,25.10
2023-09-13T20:28:48.859Z,24.91
2023-09-13T20:38:51.855Z,24.74
2023-09-13T20:48:54.042Z,24.80
2023-09-13T20:58:56.102Z,24.48
2023-09-13T21:08:58.091Z,24.21
2023-09-13T21:19:01.532Z,23.94
2023-09-13T21:29:03.421Z,24.17
2023-09-13T21:39:05.724Z,24.18
2023-09-13T21:49:11.486Z,24.08
2023-09-13T21:59:15.239Z,24.17
2023-09-13T22:09:17.029Z,24.28
2023-09-13T22:19:18.809Z,24.34
2023-09-13T22:29:22.093Z,24.54
2023-09-13T22:39:23.928Z,24.54
2023-09-13T22:49:30.075Z,24.48
2023-09-13T22:59:34.089Z,24.60
2023-09-13T23:09:35.894Z,24.49
2023-09-13T23:19:37.744Z,24.33
2023-09-13T23:29:39.446Z,24.24
2023-09-13T23:39:41.320Z,24.19
2023-09-13T23:49:44.037Z,24.02
2023-09-13T23:59:47.543Z,23.49
